• 1
  • 2
  • 1

 

 

WebCam

  
Kamera Halle
Kamera Vorfeld
Wetter EDDS

METAR

EDDS 240520Z VRB01KT CAVOK 11/07 Q1016 NOSIG =
EDDS 240500Z 2406/2506 VRB03KT CAVOK TEMPO 2412/2420 35005KT


TAF

EDDS 240500Z 2406/2506 VRB03KT CAVOK TEMPO 2412/2420 35005KT =


SR/SS

03:30 / 19:06 UTC
(EDSO 24-05-2019)